Stolt Capability — ELSN9 — position and weather

sailwx.info

Track history (hours):
 
Tides and Currents Weather Stations Pressure Air Temp Water Temp Dewpoint Dewpoint Depression Visibility Wind Speed Wind Dir Waves Ship Positions

Stolt Capability

Last reported at 2018-Jun-13 09:50 UTC. Time now 2018-Jun-18 00:20 UTC.
Position N 30°36' W 123°32'.

Length 176 m; draft 11.9 m.

Type: Ship (hazmat cat B). MMSI: 636010380.

Date/timePositionNaut miles runAvg speedWind from/ knotsBaromVisibWave heightAir tempDewpointWater temp
2018-Jun-13 09:50N 30°36' W 123°32'514.3
2018-Jun-13 09:30N 30°39' W 123°36'1614.2
2018-Jun-13 08:25N 30°47' W 123°51'18914.2
2018-Jun-12 19:07N 32°29' W 126°58'514.4
2018-Jun-12 18:46N 32°31' W 127°03'414.2
2018-Jun-12 18:30N 32°33' W 127°07'15214.3
2018-Jun-12 07:56N 33°51' W 129°43'614.2
2018-Jun-12 07:29N 33°54' W 129°49'814.2
2018-Jun-12 06:57N 33°58' W 129°57'  
Track history (hours):
 
Tides and Currents Weather Stations Pressure Air Temp Water Temp Dewpoint Dewpoint Depression Visibility Wind Speed Wind Dir Waves Ship Positions

Stolt Capability

Last reported at 2018-Jun-13 09:50 UTC. Time now 2018-Jun-18 00:20 UTC.
Position N 30°36' W 123°32'.

Length 176 m; draft 11.9 m.

Type: Ship (hazmat cat B). MMSI: 636010380.

Date/timePositionNaut miles runAvg speedWind from/ knotsBaromVisibWave heightAir tempDewpointWater temp
2018-Jun-13 09:50N 30°36' W 123°32'514.3
2018-Jun-13 09:30N 30°39' W 123°36'1614.2
2018-Jun-13 08:25N 30°47' W 123°51'18914.2
2018-Jun-12 19:07N 32°29' W 126°58'514.4
2018-Jun-12 18:46N 32°31' W 127°03'414.2
2018-Jun-12 18:30N 32°33' W 127°07'15214.3
2018-Jun-12 07:56N 33°51' W 129°43'614.2
2018-Jun-12 07:29N 33°54' W 129°49'814.2
2018-Jun-12 06:57N 33°58' W 129°57'  

Dump ship's entire track history